Time;durP1;ratioP1;P1;durP2;ratioP2;P2;SDS_P1;SDS_P2;PMS_P1;PMS_P2;Temp;Humidity;BMP_temperature;BMP_pressure;BME280_temperature;BME280_humidity;BME280_pressure;Samples;Min_cycle;Max_cycle;Signal;HPM_P1;HPM_P2
2024/01/01 00:01:00;;;;;;;15.70;14.10;;;8.30;41.10;;;;;;10532934;28;20801;-74
2024/01/01 00:06:03;;;;;;;13.47;12.07;;;8.30;41.30;;;;;;10532774;28;20247;-74
2024/01/01 00:11:07;;;;;;;14.00;12.70;;;8.30;41.20;;;;;;10532303;28;20285;-74
2024/01/01 00:16:14;;;;;;;12.87;11.50;;;8.20;41.20;;;;;;10532526;28;20725;-74
2024/01/01 00:21:17;;;;;;;10.40;9.30;;;8.20;41.40;;;;;;10532336;28;20246;-74
2024/01/01 00:26:21;;;;;;;20.67;16.33;;;8.20;41.20;;;;;;10532170;28;20239;-74
2024/01/01 00:31:25;;;;;;;32.20;27.30;;;8.30;41.30;;;;;;10531816;28;20244;-74
2024/01/01 00:36:28;;;;;;;48.70;38.50;;;8.20;41.20;;;;;;10531779;28;20655;-74
2024/01/01 00:41:32;;;;;;;42.63;35.30;;;8.20;41.20;;;;;;10531851;28;20231;-74
2024/01/01 00:46:36;;;;;;;44.60;38.80;;;8.20;40.90;;;;;;10531557;28;20219;-73
2024/01/01 00:51:39;;;;;;;51.70;43.83;;;8.20;41.20;;;;;;10531061;28;20262;-74
2024/01/01 00:56:43;;;;;;;45.97;39.83;;;8.10;41.00;;;;;;10531506;28;20601;-74
2024/01/01 01:01:47;;;;;;;40.80;35.40;;;8.00;40.90;;;;;;10531335;28;20838;-74
2024/01/01 01:06:52;;;;;;;33.83;30.10;;;8.00;41.10;;;;;;10531206;28;20250;-75
2024/01/01 01:11:55;;;;;;;28.27;25.30;;;7.90;41.00;;;;;;10530921;28;20282;-74
2024/01/01 01:17:00;;;;;;;27.97;23.97;;;7.90;41.10;;;;;;10530744;28;20243;-74
2024/01/01 01:22:03;;;;;;;23.93;21.43;;;7.80;41.30;;;;;;10530416;28;20281;-74
2024/01/01 01:27:06;;;;;;;23.53;20.73;;;7.80;41.30;;;;;;10530615;28;20228;-74
2024/01/01 01:32:11;;;;;;;18.03;16.20;;;7.80;41.40;;;;;;10530471;28;20310;-74
2024/01/01 01:37:14;;;;;;;13.97;12.63;;;7.70;41.40;;;;;;10529722;28;20231;-74
2024/01/01 01:42:17;;;;;;;12.33;10.67;;;7.60;41.50;;;;;;10530467;28;20231;-75
2024/01/01 01:47:22;;;;;;;9.57;8.67;;;7.60;41.80;;;;;;10530221;28;20237;-75
2024/01/01 01:52:26;;;;;;;9.20;8.23;;;7.70;42.10;;;;;;10530375;28;20732;-74
2024/01/01 01:57:30;;;;;;;8.73;7.67;;;7.80;42.00;;;;;;10530228;28;20230;-74
2024/01/01 02:02:36;;;;;;;7.73;6.73;;;7.90;41.90;;;;;;10530097;28;20690;-74
2024/01/01 02:07:40;;;;;;;6.30;5.70;;;8.00;41.90;;;;;;10529558;28;20781;-75
2024/01/01 02:12:45;;;;;;;5.40;4.90;;;8.10;41.80;;;;;;10529620;28;20227;-75
2024/01/01 02:17:50;;;;;;;5.40;4.90;;;8.10;41.70;;;;;;10529552;28;20259;-74
2024/01/01 02:22:56;;;;;;;4.90;4.50;;;8.20;41.80;;;;;;10529430;28;20237;-74
2024/01/01 02:28:00;;;;;;;5.90;4.23;;;8.30;41.90;;;;;;10529909;28;20598;-75
2024/01/01 02:33:07;;;;;;;4.83;3.47;;;8.40;41.70;;;;;;10529150;28;20236;-74
2024/01/01 02:38:12;;;;;;;5.60;4.20;;;8.40;41.70;;;;;;10529550;28;20281;-75
2024/01/01 02:43:15;;;;;;;3.57;3.10;;;8.50;41.60;;;;;;10529559;28;20228;-76
2024/01/01 02:48:18;;;;;;;4.30;3.30;;;8.60;41.50;;;;;;10531511;28;20236;-76
2024/01/01 02:53:23;;;;;;;4.50;3.33;;;8.60;41.40;;;;;;10537277;28;20745;-76
2024/01/01 02:58:26;;;;;;;3.70;3.00;;;8.70;41.40;;;;;;10536619;28;20318;-76
2024/01/01 03:03:29;;;;;;;4.67;3.00;;;8.70;41.20;;;;;;10536295;28;20220;-76
2024/01/01 03:08:36;;;;;;;2.93;2.63;;;8.80;41.20;;;;;;10536250;28;20280;-75
2024/01/01 03:13:40;;;;;;;3.47;3.17;;;8.80;40.90;;;;;;10535771;28;20227;-76
2024/01/01 03:18:43;;;;;;;3.13;2.83;;;8.80;40.90;;;;;;10535963;28;20790;-75
2024/01/01 03:23:47;;;;;;;5.17;3.53;;;8.70;40.70;;;;;;10535667;28;20717;-76
2024/01/01 03:28:51;;;;;;;3.93;3.10;;;8.70;40.60;;;;;;10535108;28;20227;-76
2024/01/01 03:33:54;;;;;;;4.00;3.43;;;8.70;40.70;;;;;;10535200;28;20655;-75
2024/01/01 03:38:58;;;;;;;3.93;3.40;;;8.60;40.80;;;;;;10535301;28;20973;-76
2024/01/01 03:44:02;;;;;;;5.20;3.83;;;8.60;40.70;;;;;;10535098;28;20228;-76
2024/01/01 03:49:05;;;;;;;4.37;3.63;;;8.50;40.70;;;;;;10535042;28;20314;-76
2024/01/01 03:54:10;;;;;;;5.50;3.70;;;8.50;40.70;;;;;;10534668;28;20238;-76
2024/01/01 03:59:13;;;;;;;4.17;3.77;;;8.50;40.60;;;;;;10533872;28;20235;-76
2024/01/01 04:04:16;;;;;;;4.67;3.57;;;8.40;40.50;;;;;;10534124;28;20645;-76
2024/01/01 04:09:21;;;;;;;4.17;3.13;;;8.40;40.70;;;;;;10533544;28;20255;-75
2024/01/01 04:14:24;;;;;;;4.00;3.60;;;8.30;41.00;;;;;;10532986;28;20702;-75
2024/01/01 04:19:27;;;;;;;4.10;3.67;;;8.30;41.00;;;;;;10533291;28;20302;-76
2024/01/01 04:24:32;;;;;;;3.30;3.00;;;8.30;40.90;;;;;;10533281;28;20608;-76
2024/01/01 04:29:35;;;;;;;5.33;3.63;;;8.30;40.90;;;;;;10533352;28;20224;-76
2024/01/01 04:34:39;;;;;;;4.70;3.80;;;8.40;41.00;;;;;;10532454;28;20736;-75
2024/01/01 04:39:43;;;;;;;4.40;3.90;;;8.40;40.80;;;;;;10532632;28;20247;-76
2024/01/01 04:44:46;;;;;;;4.87;3.83;;;8.40;40.90;;;;;;10532782;28;20246;-76
2024/01/01 04:49:50;;;;;;;5.40;4.00;;;8.50;41.00;;;;;;10532067;28;20652;-76
2024/01/01 04:54:57;;;;;;;4.93;3.93;;;8.40;40.90;;;;;;10532124;28;20235;-76
2024/01/01 05:00:00;;;;;;;4.13;3.50;;;8.50;40.90;;;;;;10531835;28;20745;-76
2024/01/01 05:05:05;;;;;;;5.67;3.90;;;8.50;40.70;;;;;;10531566;28;20227;-75
2024/01/01 05:10:11;;;;;;;5.07;3.80;;;8.60;40.80;;;;;;10530633;28;20228;-76
2024/01/01 05:15:15;;;;;;;5.63;3.97;;;8.60;40.60;;;;;;10530978;28;20262;-76
2024/01/01 05:20:18;;;;;;;4.10;3.70;;;8.60;40.60;;;;;;10531292;28;20255;-75
2024/01/01 05:25:24;;;;;;;4.17;3.20;;;8.60;40.70;;;;;;10531411;28;20242;-76
2024/01/01 05:30:30;;;;;;;4.63;3.80;;;8.60;40.80;;;;;;10530886;28;20234;-76
2024/01/01 05:35:34;;;;;;;4.20;3.27;;;8.60;40.70;;;;;;10530937;28;20239;-75
2024/01/01 05:40:38;;;;;;;4.10;3.70;;;8.70;40.70;;;;;;10531192;28;20284;-76
2024/01/01 05:45:42;;;;;;;3.57;3.27;;;8.70;41.30;;;;;;10531097;28;20330;-75
2024/01/01 05:50:45;;;;;;;3.27;2.97;;;8.80;40.60;;;;;;10530656;28;20258;-75
2024/01/01 05:55:50;;;;;;;4.20;3.13;;;8.80;41.20;;;;;;10530182;28;20284;-75
2024/01/01 06:00:54;;;;;;;3.93;3.03;;;8.80;40.60;;;;;;10530764;28;20306;-76
2024/01/01 06:05:57;;;;;;;3.93;3.30;;;8.90;40.40;;;;;;10530048;28;20227;-76
2024/01/01 06:11:01;;;;;;;3.90;3.13;;;8.90;40.50;;;;;;10530164;28;20323;-76
2024/01/01 06:16:05;;;;;;;3.37;3.07;;;8.90;40.60;;;;;;10529637;28;20235;-76
2024/01/01 06:21:09;;;;;;;3.30;2.90;;;9.00;40.50;;;;;;10529918;28;20296;-75
2024/01/01 06:26:13;;;;;;;3.07;2.77;;;9.00;40.40;;;;;;10537711;28;20315;-76
2024/01/01 06:31:17;;;;;;;2.70;2.50;;;8.90;40.30;;;;;;10537691;28;20231;-76
2024/01/01 06:36:20;;;;;;;3.00;2.80;;;8.90;40.20;;;;;;10537669;28;20737;-75
2024/01/01 06:41:25;;;;;;;2.90;2.60;;;8.90;40.20;;;;;;10538046;28;20296;-75
2024/01/01 06:46:28;;;;;;;3.03;2.83;;;8.80;40.20;;;;;;10564820;28;20219;-75
2024/01/01 06:51:33;;;;;;;3.20;2.90;;;8.70;40.20;;;;;;10570661;28;20233;-75
2024/01/01 06:56:41;;;;;;;2.70;2.40;;;8.70;40.30;;;;;;10561875;27;20230;-74
2024/01/01 07:01:44;;;;;;;4.10;2.80;;;8.60;40.20;;;;;;10566005;28;20313;-74
2024/01/01 07:06:47;;;;;;;3.53;2.47;;;8.60;40.50;;;;;;10562316;28;20307;-74
2024/01/01 07:11:56;;;;;;;2.97;2.30;;;8.60;40.60;;;;;;10560490;27;20215;-74
2024/01/01 07:16:59;;;;;;;3.20;2.50;;;8.50;40.40;;;;;;10559574;28;20705;-74
2024/01/01 07:22:02;;;;;;;3.20;2.47;;;8.50;40.50;;;;;;10560750;28;20230;-74
2024/01/01 07:27:08;;;;;;;2.20;2.00;;;8.40;40.50;;;;;;10559553;28;20269;-74
2024/01/01 07:32:11;;;;;;;2.17;1.60;;;8.40;40.60;;;;;;10560233;28;20235;-74
2024/01/01 07:37:14;;;;;;;2.93;1.93;;;8.40;40.70;;;;;;10557703;27;20689;-74
2024/01/01 07:42:19;;;;;;;1.97;1.80;;;8.30;40.70;;;;;;10562152;28;20310;-74
2024/01/01 07:47:22;;;;;;;2.63;1.90;;;8.30;40.90;;;;;;10557060;27;20310;-75
2024/01/01 07:52:25;;;;;;;2.40;1.90;;;8.40;40.90;;;;;;10563638;28;20231;-74
2024/01/01 07:57:30;;;;;;;4.07;2.00;;;8.40;40.90;;;;;;10559293;27;20226;-74
2024/01/01 08:02:33;;;;;;;2.67;1.80;;;8.50;40.90;;;;;;10563403;28;20223;-74
2024/01/01 08:07:37;;;;;;;2.33;1.60;;;8.60;41.10;;;;;;10564257;27;20258;-74
2024/01/01 08:12:41;;;;;;;2.43;1.67;;;8.70;41.00;;;;;;10564218;28;20230;-74
2024/01/01 08:17:44;;;;;;;2.37;1.90;;;8.80;40.80;;;;;;10559264;27;20231;-75
2024/01/01 08:22:48;;;;;;;1.40;1.20;;;9.00;41.00;;;;;;10561433;28;20223;-75
2024/01/01 08:27:53;;;;;;;2.33;1.37;;;9.10;40.60;;;;;;10564311;27;20716;-75
2024/01/01 08:32:56;;;;;;;3.17;1.70;;;9.30;40.30;;;;;;10562628;28;20229;-75
2024/01/01 08:38:00;;;;;;;1.47;1.17;;;9.40;40.40;;;;;;10554667;28;20222;-75
2024/01/01 08:43:06;;;;;;;3.27;1.30;;;9.50;40.50;;;;;;10556769;28;20219;-75
2024/01/01 08:48:09;;;;;;;2.57;1.37;;;9.60;40.50;;;;;;10559095;28;20218;-75
2024/01/01 08:53:13;;;;;;;2.20;1.23;;;9.70;40.60;;;;;;10554285;28;20261;-75
2024/01/01 08:58:20;;;;;;;1.47;1.20;;;9.80;40.20;;;;;;10560247;27;20230;-75
2024/01/01 09:03:23;;;;;;;4.00;1.77;;;9.80;40.20;;;;;;10562747;28;20681;-75
2024/01/01 09:08:28;;;;;;;2.23;1.27;;;9.90;40.60;;;;;;10553166;28;20285;-75
2024/01/01 09:13:33;;;;;;;4.57;1.60;;;10.00;39.00;;;;;;10559305;27;20223;-75
2024/01/01 09:18:38;;;;;;;3.57;2.00;;;10.00;38.70;;;;;;10562591;28;20309;-76
2024/01/01 09:23:42;;;;;;;2.90;1.27;;;10.00;38.70;;;;;;10557530;28;20231;-75
2024/01/01 09:28:46;;;;;;;2.77;1.60;;;10.10;38.80;;;;;;10561902;28;20623;-75
2024/01/01 09:33:49;;;;;;;1.40;1.27;;;10.10;38.50;;;;;;10552999;28;20234;-75
2024/01/01 09:38:53;;;;;;;4.43;1.90;;;10.20;38.70;;;;;;10556240;28;20230;-75
2024/01/01 09:43:57;;;;;;;3.27;1.70;;;10.20;38.70;;;;;;10558951;27;20313;-75
2024/01/01 09:49:00;;;;;;;2.40;1.87;;;10.40;38.40;;;;;;10552753;28;20223;-75
2024/01/01 09:54:04;;;;;;;2.83;1.70;;;10.40;38.20;;;;;;10552871;28;20742;-75
2024/01/01 09:59:10;;;;;;;3.37;1.30;;;10.50;38.30;;;;;;10559373;28;20688;-75
2024/01/01 10:04:13;;;;;;;1.83;1.50;;;10.50;38.00;;;;;;10566113;27;20231;-75
2024/01/01 10:09:16;;;;;;;2.17;1.30;;;10.60;38.20;;;;;;10573225;27;20231;-75
2024/01/01 10:14:21;;;;;;;3.17;1.40;;;10.70;38.30;;;;;;10569188;27;20229;-75
2024/01/01 10:19:25;;;;;;;3.50;1.60;;;10.80;38.50;;;;;;10565279;28;20277;-75
2024/01/01 10:24:29;;;;;;;2.63;1.57;;;10.90;37.80;;;;;;10557040;28;20234;-75
2024/01/01 10:29:37;;;;;;;2.50;1.57;;;10.90;38.00;;;;;;10563765;28;20647;-76
2024/01/01 10:34:41;;;;;;;2.80;1.60;;;11.10;37.50;;;;;;10567043;27;20227;-75
2024/01/01 10:39:45;;;;;;;2.40;1.50;;;11.10;37.70;;;;;;10564040;28;20226;-75
2024/01/01 10:44:50;;;;;;;2.90;1.40;;;11.20;38.40;;;;;;10561217;27;20230;-75
2024/01/01 10:49:59;;;;;;;5.40;2.20;;;11.20;37.60;;;;;;10560900;27;20245;-75
2024/01/01 10:55:23;;;;;;;5.50;2.33;;;11.40;37.70;;;;;;10567644;28;20234;-75
2024/01/01 11:00:35;;;;;;;4.43;1.93;;;11.40;37.10;;;;;;10570395;27;20231;-76
2024/01/01 11:05:38;;;;;;;2.03;1.40;;;11.50;36.70;;;;;;10567339;27;20234;-76
2024/01/01 11:10:44;;;;;;;1.87;1.50;;;11.50;36.90;;;;;;10555834;28;20334;-75
2024/01/01 11:15:50;;;;;;;2.87;1.90;;;11.50;36.90;;;;;;10563273;28;20646;-76
2024/01/01 11:20:55;;;;;;;2.43;1.50;;;11.60;36.90;;;;;;10569138;28;20315;-75
2024/01/01 11:25:58;;;;;;;2.30;1.40;;;11.60;36.70;;;;;;10565535;27;20235;-75
2024/01/01 11:31:03;;;;;;;2.53;1.30;;;11.60;36.90;;;;;;10557176;27;20244;-75
2024/01/01 11:36:09;;;;;;;2.27;1.20;;;11.60;36.60;;;;;;10570458;28;20227;-75
2024/01/01 11:41:12;;;;;;;2.37;1.37;;;11.60;36.70;;;;;;10564638;27;20224;-75
2024/01/01 11:46:24;;;;;;;3.30;1.60;;;11.70;37.20;;;;;;10553959;27;20219;-75
2024/01/01 11:51:31;;;;;;;2.73;1.20;;;11.80;36.10;;;;;;10564891;28;20244;-75
2024/01/01 11:56:35;;;;;;;3.00;1.33;;;11.90;36.20;;;;;;10561911;28;20237;-75
2024/01/01 12:01:41;;;;;;;2.20;1.70;;;12.00;36.30;;;;;;10561808;28;20322;-75
2024/01/01 12:06:51;;;;;;;2.07;1.10;;;12.10;35.50;;;;;;10558961;27;20235;-75
2024/01/01 12:12:05;;;;;;;2.27;1.50;;;12.20;34.90;;;;;;10557748;27;20466;-75
2024/01/01 12:17:10;;;;;;;3.63;2.30;;;12.20;34.50;;;;;;10553773;28;20255;-75
2024/01/01 12:22:21;;;;;;;2.87;1.20;;;12.30;35.10;;;;;;10551476;28;20735;-75
2024/01/01 12:27:25;;;;;;;2.20;1.17;;;12.40;34.40;;;;;;10557979;28;20597;-75
2024/01/01 12:32:34;;;;;;;1.63;1.03;;;12.50;35.00;;;;;;10563983;28;20226;-75
2024/01/01 12:37:37;;;;;;;1.70;0.97;;;12.50;34.10;;;;;;10559830;27;20238;-75
2024/01/01 12:42:40;;;;;;;1.93;1.00;;;12.40;34.50;;;;;;10563578;28;20318;-75
2024/01/01 12:47:45;;;;;;;3.33;1.30;;;12.40;34.50;;;;;;10567700;27;20258;-75
2024/01/01 12:52:48;;;;;;;3.10;1.20;;;12.30;34.30;;;;;;10561183;28;20235;-75
2024/01/01 12:57:51;;;;;;;3.40;1.30;;;12.30;34.50;;;;;;10555338;28;20323;-75
2024/01/01 13:02:56;;;;;;;3.60;1.30;;;12.30;34.20;;;;;;10561707;28;20231;-76
2024/01/01 13:07:59;;;;;;;3.30;1.10;;;12.30;33.70;;;;;;10549803;27;20237;-76
2024/01/01 13:13:02;;;;;;;3.20;1.40;;;12.30;34.20;;;;;;10544119;27;20223;-76
2024/01/01 13:18:07;;;;;;;3.23;1.30;;;12.20;33.90;;;;;;10545902;28;20636;-76
2024/01/01 13:23:15;;;;;;;2.13;1.13;;;12.20;33.30;;;;;;10549598;27;20230;-75
2024/01/01 13:28:21;;;;;;;2.30;1.30;;;12.20;33.70;;;;;;10543900;28;20241;-76
2024/01/01 13:33:25;;;;;;;2.20;1.30;;;12.10;33.40;;;;;;10545032;27;20223;-76
2024/01/01 13:38:29;;;;;;;3.73;1.60;;;12.10;33.30;;;;;;10541259;28;20290;-76
2024/01/01 13:43:32;;;;;;;2.30;1.20;;;12.00;33.50;;;;;;10547395;28;20348;-76
2024/01/01 13:48:37;;;;;;;3.87;1.47;;;12.00;33.80;;;;;;10540890;28;20799;-76
2024/01/01 13:53:40;;;;;;;2.97;1.17;;;12.00;33.30;;;;;;10542977;28;20226;-76
2024/01/01 13:58:43;;;;;;;2.77;1.30;;;12.00;33.60;;;;;;10547284;28;20249;-76
2024/01/01 14:03:48;;;;;;;2.60;1.17;;;12.00;33.50;;;;;;10544613;28;20342;-76
2024/01/01 14:08:51;;;;;;;2.23;1.27;;;11.90;33.20;;;;;;10544839;28;20234;-76
2024/01/01 14:13:54;;;;;;;3.47;1.50;;;11.90;33.50;;;;;;10543733;28;20314;-76
2024/01/01 14:18:59;;;;;;;5.87;1.50;;;11.80;33.30;;;;;;10546997;28;20227;-76
2024/01/01 14:24:02;;;;;;;4.53;1.43;;;11.80;32.90;;;;;;10544954;28;20223;-76
2024/01/01 14:29:05;;;;;;;4.63;1.70;;;11.80;33.30;;;;;;10545892;28;20224;-76
2024/01/01 14:34:10;;;;;;;4.43;1.40;;;11.70;33.00;;;;;;10547406;28;20235;-76
2024/01/01 14:39:14;;;;;;;3.00;1.20;;;11.70;33.00;;;;;;10541392;28;20262;-76
2024/01/01 14:44:18;;;;;;;3.37;1.40;;;11.70;33.30;;;;;;10544126;28;20249;-76
2024/01/01 14:49:22;;;;;;;2.80;1.33;;;11.60;33.20;;;;;;10551381;28;20599;-76
2024/01/01 14:54:26;;;;;;;6.33;1.90;;;11.60;33.10;;;;;;10550645;27;20227;-76
2024/01/01 14:59:29;;;;;;;2.50;1.30;;;11.60;33.50;;;;;;10551852;28;20234;-76
2024/01/01 15:04:34;;;;;;;3.97;1.57;;;11.50;33.40;;;;;;10551951;28;20309;-76
2024/01/01 15:09:38;;;;;;;3.30;1.30;;;11.40;33.20;;;;;;10556791;28;20222;-76
2024/01/01 15:14:41;;;;;;;3.83;1.53;;;11.40;33.40;;;;;;10548471;28;20720;-76
2024/01/01 15:19:46;;;;;;;3.43;1.30;;;11.30;33.50;;;;;;10550454;27;20310;-76
2024/01/01 15:24:49;;;;;;;4.03;1.50;;;11.20;33.50;;;;;;10553599;28;20271;-76
2024/01/01 15:29:52;;;;;;;2.50;1.23;;;11.20;33.80;;;;;;10548056;27;20219;-76
2024/01/01 15:34:57;;;;;;;2.43;1.40;;;11.10;33.90;;;;;;10552964;28;20254;-76
2024/01/01 15:40:01;;;;;;;2.47;1.63;;;11.10;34.50;;;;;;10547545;28;20310;-76
2024/01/01 15:45:04;;;;;;;3.67;1.67;;;11.10;33.90;;;;;;10542968;28;20235;-76
2024/01/01 15:50:09;;;;;;;3.10;1.70;;;11.10;34.10;;;;;;10550674;27;20655;-76
2024/01/01 15:55:13;;;;;;;3.37;1.67;;;11.10;33.90;;;;;;10551251;27;20304;-76
2024/01/01 16:00:17;;;;;;;2.53;1.37;;;11.20;34.10;;;;;;10551986;28;20357;-76
2024/01/01 16:05:21;;;;;;;2.60;1.37;;;11.10;33.70;;;;;;10555234;28;20305;-76
2024/01/01 16:10:25;;;;;;;2.50;1.30;;;11.00;33.80;;;;;;10551654;28;20231;-75
2024/01/01 16:15:28;;;;;;;3.83;1.70;;;11.00;34.30;;;;;;10550829;28;20744;-75
2024/01/01 16:20:33;;;;;;;2.43;1.00;;;10.90;33.90;;;;;;10544550;27;20315;-75
2024/01/01 16:25:36;;;;;;;3.50;1.30;;;10.80;34.10;;;;;;10545761;27;20226;-75
2024/01/01 16:30:39;;;;;;;3.53;1.20;;;10.80;34.40;;;;;;10546397;28;21637;-75
2024/01/01 16:35:44;;;;;;;3.43;1.43;;;10.60;34.10;;;;;;10548713;28;20234;-75
2024/01/01 16:40:48;;;;;;;1.57;1.00;;;10.60;34.30;;;;;;10546877;28;20251;-75
2024/01/01 16:45:51;;;;;;;2.60;1.20;;;10.50;34.30;;;;;;10546540;28;20934;-75
2024/01/01 16:50:56;;;;;;;3.80;1.27;;;10.40;34.30;;;;;;10548596;27;20645;-75
2024/01/01 16:55:59;;;;;;;3.43;1.33;;;10.30;34.10;;;;;;10546993;28;20875;-75
2024/01/01 17:01:02;;;;;;;1.87;1.13;;;10.20;34.60;;;;;;10547662;28;20242;-75
2024/01/01 17:06:08;;;;;;;3.50;1.47;;;10.20;34.50;;;;;;10545994;27;20222;-76
2024/01/01 17:11:12;;;;;;;3.53;2.53;;;10.30;34.60;;;;;;10545079;28;20223;-75
2024/01/01 17:16:16;;;;;;;3.13;1.63;;;10.30;34.60;;;;;;10548612;27;20301;-76
2024/01/01 17:21:21;;;;;;;3.97;1.70;;;10.30;34.60;;;;;;10549998;28;20649;-75
2024/01/01 17:26:25;;;;;;;3.40;1.60;;;10.20;34.50;;;;;;10546673;28;20229;-75
2024/01/01 17:31:28;;;;;;;3.43;1.60;;;10.20;34.60;;;;;;10547122;28;20378;-75
2024/01/01 17:36:33;;;;;;;5.70;1.83;;;10.20;34.70;;;;;;10547447;28;20231;-75
2024/01/01 17:41:38;;;;;;;2.13;1.40;;;10.10;34.70;;;;;;10546101;28;20234;-75
2024/01/01 17:46:41;;;;;;;3.83;1.50;;;10.10;34.80;;;;;;10546012;28;20227;-75
2024/01/01 17:51:46;;;;;;;3.67;2.13;;;10.10;35.00;;;;;;10542243;28;20772;-75
2024/01/01 17:56:49;;;;;;;1.97;1.67;;;10.10;34.80;;;;;;10544762;28;20630;-75
2024/01/01 18:01:52;;;;;;;2.83;1.50;;;10.10;35.00;;;;;;10539948;28;20215;-75
2024/01/01 18:06:57;;;;;;;3.10;1.70;;;10.10;35.10;;;;;;10545268;28;20215;-75
2024/01/01 18:12:01;;;;;;;3.33;1.77;;;10.00;35.00;;;;;;10545362;28;20241;-75
2024/01/01 18:17:05;;;;;;;3.17;1.73;;;9.90;36.00;;;;;;10550856;28;20227;-75
2024/01/01 18:22:09;;;;;;;3.30;1.70;;;9.90;36.20;;;;;;10555743;28;20238;-75
2024/01/01 18:27:12;;;;;;;3.93;1.90;;;9.80;36.20;;;;;;10552494;28;20310;-75
2024/01/01 18:32:16;;;;;;;3.83;1.77;;;9.80;36.30;;;;;;10547777;28;20251;-75
2024/01/01 18:37:21;;;;;;;2.97;1.83;;;9.80;36.40;;;;;;10552053;28;20311;-75
2024/01/01 18:42:26;;;;;;;3.77;1.53;;;9.80;36.60;;;;;;10552644;27;20234;-75
2024/01/01 18:47:29;;;;;;;3.17;1.60;;;9.80;36.60;;;;;;10556379;28;20238;-75
2024/01/01 18:52:34;;;;;;;2.30;1.30;;;9.80;36.60;;;;;;10551082;28;20235;-75
2024/01/01 18:57:38;;;;;;;3.87;2.03;;;9.70;36.50;;;;;;10554726;28;20671;-75
2024/01/01 19:02:42;;;;;;;4.00;1.57;;;9.80;36.50;;;;;;10551922;27;20307;-75
2024/01/01 19:07:50;;;;;;;3.50;1.70;;;9.80;36.60;;;;;;10549621;28;20246;-75
2024/01/01 19:12:53;;;;;;;3.60;1.60;;;9.80;36.50;;;;;;10552060;28;20227;-75
2024/01/01 19:17:56;;;;;;;3.73;1.50;;;9.80;36.50;;;;;;10551774;28;20227;-74
2024/01/01 19:23:02;;;;;;;4.37;1.53;;;9.90;36.50;;;;;;10556046;28;20223;-74
2024/01/01 19:28:06;;;;;;;4.17;1.70;;;9.90;36.40;;;;;;10551383;28;20222;-74
2024/01/01 19:33:09;;;;;;;4.03;2.10;;;9.90;36.50;;;;;;10544983;28;21101;-74
2024/01/01 19:38:15;;;;;;;3.53;1.50;;;9.90;36.30;;;;;;10548276;28;20219;-74
2024/01/01 19:43:18;;;;;;;4.60;1.60;;;9.90;36.20;;;;;;10549004;28;20223;-74
2024/01/01 19:48:23;;;;;;;4.90;1.50;;;9.90;36.30;;;;;;10551964;28;20697;-74
2024/01/01 19:53:27;;;;;;;4.17;1.30;;;9.90;36.30;;;;;;10549257;28;20247;-74
2024/01/01 19:58:31;;;;;;;6.30;1.30;;;9.90;36.30;;;;;;10549687;27;20288;-74
2024/01/01 20:03:35;;;;;;;4.13;1.37;;;9.90;36.30;;;;;;10551037;28;20228;-74
2024/01/01 20:08:42;;;;;;;5.57;1.30;;;9.90;36.50;;;;;;10556209;27;20231;-74
2024/01/01 20:13:45;;;;;;;2.03;1.03;;;9.90;36.30;;;;;;10547429;28;20228;-74
2024/01/01 20:18:48;;;;;;;1.73;1.10;;;9.80;36.30;;;;;;10546427;27;20717;-74
2024/01/01 20:23:53;;;;;;;3.23;1.40;;;9.80;36.50;;;;;;10553702;27;20238;-74
2024/01/01 20:28:56;;;;;;;4.13;1.70;;;9.70;36.20;;;;;;10551284;28;20235;-74
2024/01/01 20:34:01;;;;;;;3.97;1.60;;;9.70;36.50;;;;;;10544756;28;20251;-74
2024/01/01 20:39:05;;;;;;;3.23;1.60;;;9.70;36.30;;;;;;10546968;27;20234;-74
2024/01/01 20:44:09;;;;;;;4.47;1.70;;;9.70;36.40;;;;;;10547674;27;20281;-74
2024/01/01 20:49:12;;;;;;;4.83;1.30;;;9.60;36.30;;;;;;10546560;28;20227;-74
2024/01/01 20:54:17;;;;;;;4.30;2.53;;;9.60;36.30;;;;;;10542378;28;20250;-75
2024/01/01 20:59:20;;;;;;;5.97;3.07;;;9.60;36.40;;;;;;10550524;28;20227;-74
2024/01/01 21:04:23;;;;;;;5.43;2.37;;;9.50;36.30;;;;;;10543248;28;20238;-74
2024/01/01 21:09:29;;;;;;;4.10;2.00;;;9.50;36.40;;;;;;10548956;28;20231;-74
2024/01/01 21:14:32;;;;;;;3.93;1.97;;;9.40;36.30;;;;;;10547329;28;20289;-74
2024/01/01 21:19:35;;;;;;;4.67;1.63;;;9.40;36.50;;;;;;10544735;28;20238;-74
2024/01/01 21:24:42;;;;;;;4.60;1.73;;;9.40;36.50;;;;;;10543369;28;20310;-74
2024/01/01 21:29:45;;;;;;;5.50;1.73;;;9.30;36.50;;;;;;10545892;28;20326;-74
2024/01/01 21:34:49;;;;;;;3.80;1.90;;;9.30;36.50;;;;;;10547558;28;20904;-74
2024/01/01 21:39:53;;;;;;;6.87;3.20;;;9.30;36.60;;;;;;10546855;27;20235;-74
2024/01/01 21:44:57;;;;;;;4.03;2.10;;;9.30;36.70;;;;;;10551193;28;20255;-74
2024/01/01 21:50:00;;;;;;;6.40;3.57;;;9.20;36.70;;;;;;10545026;28;20266;-74
2024/01/01 21:55:05;;;;;;;5.20;3.13;;;9.20;36.70;;;;;;10551580;28;20266;-74
2024/01/01 22:00:10;;;;;;;6.57;2.90;;;9.10;36.70;;;;;;10552459;28;20277;-74
2024/01/01 22:05:13;;;;;;;7.40;2.77;;;9.00;36.70;;;;;;10551343;27;20254;-74
2024/01/01 22:10:19;;;;;;;5.83;2.47;;;9.00;36.80;;;;;;10559624;28;20234;-74
2024/01/01 22:15:23;;;;;;;3.67;2.47;;;8.90;36.90;;;;;;10554358;28;20296;-74
2024/01/01 22:20:26;;;;;;;4.60;2.70;;;8.80;36.80;;;;;;10553359;28;20231;-74
2024/01/01 22:25:31;;;;;;;6.40;2.43;;;8.80;37.00;;;;;;10553822;28;20238;-74
2024/01/01 22:30:34;;;;;;;3.90;2.23;;;8.70;37.10;;;;;;10550139;28;20251;-74
2024/01/01 22:35:38;;;;;;;4.27;2.13;;;8.70;37.00;;;;;;10555519;27;20272;-74
2024/01/01 22:40:43;;;;;;;3.83;2.03;;;8.70;37.10;;;;;;10547498;28;20235;-74
2024/01/01 22:45:46;;;;;;;3.53;2.03;;;8.70;37.10;;;;;;10547906;28;20746;-74
2024/01/01 22:50:49;;;;;;;4.30;2.13;;;8.70;36.90;;;;;;10542005;28;20227;-74
2024/01/01 22:55:55;;;;;;;3.90;2.13;;;8.70;37.00;;;;;;10546134;28;20306;-74
2024/01/01 23:00:59;;;;;;;4.17;2.40;;;8.70;37.20;;;;;;10547042;27;20800;-74
2024/01/01 23:06:03;;;;;;;3.73;2.80;;;8.60;37.10;;;;;;10548822;28;20259;-74
2024/01/01 23:11:08;;;;;;;4.43;2.53;;;8.50;37.20;;;;;;10550526;27;20237;-74
2024/01/01 23:16:11;;;;;;;4.97;2.80;;;8.40;37.50;;;;;;10549274;27;20227;-74
2024/01/01 23:21:14;;;;;;;5.67;2.30;;;8.30;37.50;;;;;;10547935;28;20227;-74
2024/01/01 23:26:19;;;;;;;3.17;2.20;;;8.30;37.60;;;;;;10547409;28;20326;-74
2024/01/01 23:31:23;;;;;;;4.37;1.80;;;8.20;37.90;;;;;;10546010;28;20235;-74
2024/01/01 23:36:26;;;;;;;3.27;1.90;;;8.20;37.90;;;;;;10549298;28;20223;-74
2024/01/01 23:41:31;;;;;;;3.57;1.80;;;8.10;37.90;;;;;;10547706;28;20237;-74
2024/01/01 23:46:34;;;;;;;3.63;1.90;;;8.10;38.20;;;;;;10549504;27;20242;-74
2024/01/01 23:51:37;;;;;;;3.10;1.80;;;8.10;38.10;;;;;;10549487;27;20588;-74
2024/01/01 23:56:42;;;;;;;3.87;1.30;;;8.10;38.20;;;;;;10550345;28;20263;-74
